Terminal Aerodrome Forecast
Issued by NWS Wilmington, OH

Current Version | Previous Version | Graphics & Text | Print | Product List | Glossary On
Versions: 1 2 3 4 5 6 7 8 9 10 11 12 13 14 15 16 17 18 19 20 21 22 23 24 25 26 27 28 29 30 31 32
000
FTUS41 KILN 160800 AAA
TAFCVG
TAF AMD
KCVG 160858Z 1609/1712 13010KT P6SM OVC030
     FM161200 16010KT P6SM -SHRA OVC020
     FM161500 17010KT P6SM VCSH OVC020
     FM162100 19006KT 5SM -SHRA OVC020
     FM170300 23005KT 5SM BR OVC020=

USA.gov is the U.S. government's official web portal to all federal, state and local government web resources and services.